METAR Formatted Surface Weather Observation
Issued by NWS

Home | Current Version | Previous Version | Text Only | Print | Product List | Glossary On
Versions: 1 2 3 4 5 6 7 8 9 10 11 12 13 14 15 16 17 18 19 20 21 22 23 24 25 26 27 28 29 30 31 32 33 34 35 36 37 38 39 40 41 42 43 44 45 46 47 48 49 50
000
SAUS46 KLOX 170200
MTRNZY
METAR KNZY 170152Z 34007KT 10SM SCT040CB BKN120 BKN200 34/16 A2965
RMK AO2 PK WND 33027/0109 SLP040 CB W MOV NW TCU DSNT SE
TSE48RAB03E12 VIRGA SW-W P0000 T03390161 $



USA.gov is the U.S. government's official web portal to all federal, state and local government web resources and services.